Capitol Logistics 7355

Operating for MZN



KIAH
George Bush Intcntl/Houston Airport
Houston, Texas
KILN
Wilmington Air Park
Wilmington, Ohio

Activity Log

Date Flight Route Aircraft Duration
No Flights Yet

Route Details

Aircraft Information
Primary: Boeing 737-800BCF
Backup: Boeing 757-200SF
Route Data
Distance: 804nm
Duration: 1h 47m
Recm'd Route: INDIE7 TPAKK LIT J131 PXV SARGO DJOHN
Origin Wx: KIAH 020453Z 21008KT 10SM FEW250 29/24 A3001 RMK AO2 SLP162 T02940239
Dest. Wx: KILN 020454Z AUTO 36005KT 7SM CLR 17/13 A3007 RMK AO2 SLP176 T01670128 402610150 $
Notes: